sensor_id;sensor_type;location;lat;lon;timestamp;P1;durP1;ratioP1;P2;durP2;ratioP2
9138;SDS011;4604;48.616;9.548;2023-12-04T00:01:50;21.13;;;9.57;;
9138;SDS011;4604;48.616;9.548;2023-12-04T00:04:16;19.03;;;9.57;;
9138;SDS011;4604;48.616;9.548;2023-12-04T00:06:43;16.93;;;8.50;;
9138;SDS011;4604;48.616;9.548;2023-12-04T00:09:10;12.90;;;7.53;;
9138;SDS011;4604;48.616;9.548;2023-12-04T00:11:36;17.70;;;8.20;;
9138;SDS011;4604;48.616;9.548;2023-12-04T00:14:03;16.63;;;7.57;;
9138;SDS011;4604;48.616;9.548;2023-12-04T00:16:34;15.70;;;7.37;;
9138;SDS011;4604;48.616;9.548;2023-12-04T00:19:01;15.17;;;8.10;;
9138;SDS011;4604;48.616;9.548;2023-12-04T00:21:27;14.17;;;8.10;;
9138;SDS011;4604;48.616;9.548;2023-12-04T00:23:54;19.03;;;7.60;;
9138;SDS011;4604;48.616;9.548;2023-12-04T00:26:21;13.50;;;6.97;;
9138;SDS011;4604;48.616;9.548;2023-12-04T00:28:47;13.30;;;7.57;;
9138;SDS011;4604;48.616;9.548;2023-12-04T00:31:14;12.20;;;7.17;;
9138;SDS011;4604;48.616;9.548;2023-12-04T00:33:42;15.23;;;8.17;;
9138;SDS011;4604;48.616;9.548;2023-12-04T00:36:09;14.00;;;8.30;;
9138;SDS011;4604;48.616;9.548;2023-12-04T00:38:36;16.40;;;9.00;;
9138;SDS011;4604;48.616;9.548;2023-12-04T00:41:03;17.00;;;9.80;;
9138;SDS011;4604;48.616;9.548;2023-12-04T00:43:30;21.27;;;11.10;;
9138;SDS011;4604;48.616;9.548;2023-12-04T00:45:56;22.77;;;12.50;;
9138;SDS011;4604;48.616;9.548;2023-12-04T00:48:23;22.17;;;11.93;;
9138;SDS011;4604;48.616;9.548;2023-12-04T00:50:51;24.47;;;11.47;;
9138;SDS011;4604;48.616;9.548;2023-12-04T00:53:18;19.57;;;11.20;;
9138;SDS011;4604;48.616;9.548;2023-12-04T00:55:45;23.33;;;11.33;;
9138;SDS011;4604;48.616;9.548;2023-12-04T00:58:11;19.73;;;9.40;;
9138;SDS011;4604;48.616;9.548;2023-12-04T01:00:38;16.20;;;9.23;;
9138;SDS011;4604;48.616;9.548;2023-12-04T01:03:04;21.00;;;10.90;;
9138;SDS011;4604;48.616;9.548;2023-12-04T01:05:31;19.77;;;10.07;;
9138;SDS011;4604;48.616;9.548;2023-12-04T01:07:59;19.37;;;10.37;;
9138;SDS011;4604;48.616;9.548;2023-12-04T01:10:25;15.20;;;9.10;;
9138;SDS011;4604;48.616;9.548;2023-12-04T01:12:52;20.37;;;9.77;;
9138;SDS011;4604;48.616;9.548;2023-12-04T01:15:19;17.60;;;9.57;;
9138;SDS011;4604;48.616;9.548;2023-12-04T01:17:45;18.97;;;10.70;;
9138;SDS011;4604;48.616;9.548;2023-12-04T01:20:12;19.53;;;9.57;;
9138;SDS011;4604;48.616;9.548;2023-12-04T01:22:39;15.60;;;8.40;;
9138;SDS011;4604;48.616;9.548;2023-12-04T01:25:07;16.07;;;8.77;;
9138;SDS011;4604;48.616;9.548;2023-12-04T01:27:35;15.97;;;8.27;;
9138;SDS011;4604;48.616;9.548;2023-12-04T01:30:03;17.63;;;9.07;;
9138;SDS011;4604;48.616;9.548;2023-12-04T01:32:30;14.83;;;8.57;;
9138;SDS011;4604;48.616;9.548;2023-12-04T01:34:56;11.73;;;6.77;;
9138;SDS011;4604;48.616;9.548;2023-12-04T01:37:23;10.33;;;4.87;;
9138;SDS011;4604;48.616;9.548;2023-12-04T01:39:50;14.03;;;6.80;;
9138;SDS011;4604;48.616;9.548;2023-12-04T01:42:18;14.00;;;8.33;;
9138;SDS011;4604;48.616;9.548;2023-12-04T01:44:44;15.50;;;8.37;;
9138;SDS011;4604;48.616;9.548;2023-12-04T01:47:11;13.00;;;7.17;;
9138;SDS011;4604;48.616;9.548;2023-12-04T01:49:38;18.43;;;8.27;;
9138;SDS011;4604;48.616;9.548;2023-12-04T01:52:05;19.53;;;9.00;;
9138;SDS011;4604;48.616;9.548;2023-12-04T01:54:32;13.07;;;7.50;;
9138;SDS011;4604;48.616;9.548;2023-12-04T01:56:59;16.73;;;8.73;;
9138;SDS011;4604;48.616;9.548;2023-12-04T01:59:27;16.70;;;9.03;;
9138;SDS011;4604;48.616;9.548;2023-12-04T02:01:53;16.73;;;9.20;;
9138;SDS011;4604;48.616;9.548;2023-12-04T02:04:21;14.53;;;7.50;;
9138;SDS011;4604;48.616;9.548;2023-12-04T02:06:47;13.70;;;7.07;;
9138;SDS011;4604;48.616;9.548;2023-12-04T02:09:14;11.30;;;6.80;;
9138;SDS011;4604;48.616;9.548;2023-12-04T02:11:41;15.47;;;7.20;;
9138;SDS011;4604;48.616;9.548;2023-12-04T02:14:08;13.87;;;6.80;;
9138;SDS011;4604;48.616;9.548;2023-12-04T02:16:38;13.63;;;7.10;;
9138;SDS011;4604;48.616;9.548;2023-12-04T02:19:07;12.67;;;6.90;;
9138;SDS011;4604;48.616;9.548;2023-12-04T02:21:37;13.87;;;6.30;;
9138;SDS011;4604;48.616;9.548;2023-12-04T02:24:05;11.73;;;7.50;;
9138;SDS011;4604;48.616;9.548;2023-12-04T02:26:33;11.47;;;6.53;;
9138;SDS011;4604;48.616;9.548;2023-12-04T02:29:07;13.83;;;6.90;;
9138;SDS011;4604;48.616;9.548;2023-12-04T02:31:37;14.60;;;7.10;;
9138;SDS011;4604;48.616;9.548;2023-12-04T02:34:07;18.73;;;7.63;;
9138;SDS011;4604;48.616;9.548;2023-12-04T02:36:35;13.93;;;6.90;;
9138;SDS011;4604;48.616;9.548;2023-12-04T02:39:05;13.50;;;6.47;;
9138;SDS011;4604;48.616;9.548;2023-12-04T02:41:32;14.17;;;6.83;;
9138;SDS011;4604;48.616;9.548;2023-12-04T02:43:59;12.70;;;6.97;;
9138;SDS011;4604;48.616;9.548;2023-12-04T02:46:26;12.50;;;7.13;;
9138;SDS011;4604;48.616;9.548;2023-12-04T02:48:52;11.57;;;6.07;;
9138;SDS011;4604;48.616;9.548;2023-12-04T02:51:19;13.80;;;7.40;;
9138;SDS011;4604;48.616;9.548;2023-12-04T02:53:45;15.07;;;7.60;;
9138;SDS011;4604;48.616;9.548;2023-12-04T02:56:13;14.40;;;7.70;;
9138;SDS011;4604;48.616;9.548;2023-12-04T02:58:40;17.97;;;8.33;;
9138;SDS011;4604;48.616;9.548;2023-12-04T03:01:07;11.63;;;7.10;;
9138;SDS011;4604;48.616;9.548;2023-12-04T03:03:33;16.00;;;7.83;;
9138;SDS011;4604;48.616;9.548;2023-12-04T03:06:00;14.30;;;7.27;;
9138;SDS011;4604;48.616;9.548;2023-12-04T03:08:27;14.47;;;7.43;;
9138;SDS011;4604;48.616;9.548;2023-12-04T03:10:53;11.83;;;6.50;;
9138;SDS011;4604;48.616;9.548;2023-12-04T03:13:20;15.00;;;7.97;;
9138;SDS011;4604;48.616;9.548;2023-12-04T03:15:47;15.67;;;7.13;;
9138;SDS011;4604;48.616;9.548;2023-12-04T03:18:13;13.47;;;6.30;;
9138;SDS011;4604;48.616;9.548;2023-12-04T03:20:40;11.97;;;6.17;;
9138;SDS011;4604;48.616;9.548;2023-12-04T03:23:07;15.57;;;6.87;;
9138;SDS011;4604;48.616;9.548;2023-12-04T03:25:33;11.13;;;5.77;;
9138;SDS011;4604;48.616;9.548;2023-12-04T03:28:00;11.97;;;6.90;;
9138;SDS011;4604;48.616;9.548;2023-12-04T03:30:28;8.90;;;4.40;;
9138;SDS011;4604;48.616;9.548;2023-12-04T03:32:54;8.57;;;5.43;;
9138;SDS011;4604;48.616;9.548;2023-12-04T03:35:21;13.07;;;6.53;;
9138;SDS011;4604;48.616;9.548;2023-12-04T03:37:47;19.67;;;8.50;;
9138;SDS011;4604;48.616;9.548;2023-12-04T03:40:14;17.73;;;8.97;;
9138;SDS011;4604;48.616;9.548;2023-12-04T03:42:41;19.53;;;9.83;;
9138;SDS011;4604;48.616;9.548;2023-12-04T03:45:08;17.33;;;8.13;;
9138;SDS011;4604;48.616;9.548;2023-12-04T03:47:37;14.20;;;7.03;;
9138;SDS011;4604;48.616;9.548;2023-12-04T03:50:04;14.17;;;7.37;;
9138;SDS011;4604;48.616;9.548;2023-12-04T03:52:31;18.23;;;8.13;;
9138;SDS011;4604;48.616;9.548;2023-12-04T03:54:58;14.87;;;7.67;;
9138;SDS011;4604;48.616;9.548;2023-12-04T03:57:24;12.97;;;7.50;;
9138;SDS011;4604;48.616;9.548;2023-12-04T03:59:51;12.70;;;7.23;;
9138;SDS011;4604;48.616;9.548;2023-12-04T04:02:17;13.10;;;6.27;;
9138;SDS011;4604;48.616;9.548;2023-12-04T04:04:45;10.80;;;6.57;;
9138;SDS011;4604;48.616;9.548;2023-12-04T04:07:12;11.17;;;6.53;;
9138;SDS011;4604;48.616;9.548;2023-12-04T04:09:40;11.27;;;5.57;;
9138;SDS011;4604;48.616;9.548;2023-12-04T04:12:06;8.10;;;5.00;;
9138;SDS011;4604;48.616;9.548;2023-12-04T04:14:33;13.00;;;6.50;;
9138;SDS011;4604;48.616;9.548;2023-12-04T04:16:59;10.90;;;5.40;;
9138;SDS011;4604;48.616;9.548;2023-12-04T04:19:26;13.97;;;6.57;;
9138;SDS011;4604;48.616;9.548;2023-12-04T04:21:54;12.07;;;6.60;;
9138;SDS011;4604;48.616;9.548;2023-12-04T04:24:21;11.57;;;6.57;;
9138;SDS011;4604;48.616;9.548;2023-12-04T04:26:47;12.83;;;6.83;;
9138;SDS011;4604;48.616;9.548;2023-12-04T04:29:14;11.57;;;6.77;;
9138;SDS011;4604;48.616;9.548;2023-12-04T04:31:40;13.10;;;6.23;;
9138;SDS011;4604;48.616;9.548;2023-12-04T04:34:07;13.03;;;6.90;;
9138;SDS011;4604;48.616;9.548;2023-12-04T04:36:34;12.43;;;6.87;;
9138;SDS011;4604;48.616;9.548;2023-12-04T04:39:03;12.37;;;6.57;;
9138;SDS011;4604;48.616;9.548;2023-12-04T04:41:30;12.20;;;6.80;;
9138;SDS011;4604;48.616;9.548;2023-12-04T04:43:56;11.50;;;6.40;;
9138;SDS011;4604;48.616;9.548;2023-12-04T04:46:23;12.03;;;6.83;;
9138;SDS011;4604;48.616;9.548;2023-12-04T04:48:51;11.50;;;5.97;;
9138;SDS011;4604;48.616;9.548;2023-12-04T04:51:18;13.93;;;6.93;;
9138;SDS011;4604;48.616;9.548;2023-12-04T04:53:44;12.63;;;6.60;;
9138;SDS011;4604;48.616;9.548;2023-12-04T04:56:12;14.10;;;7.03;;
9138;SDS011;4604;48.616;9.548;2023-12-04T04:58:39;13.43;;;6.30;;
9138;SDS011;4604;48.616;9.548;2023-12-04T05:01:06;10.73;;;6.53;;
9138;SDS011;4604;48.616;9.548;2023-12-04T05:03:34;11.47;;;6.97;;
9138;SDS011;4604;48.616;9.548;2023-12-04T05:06:00;14.10;;;7.10;;
9138;SDS011;4604;48.616;9.548;2023-12-04T05:08:27;12.77;;;6.70;;
9138;SDS011;4604;48.616;9.548;2023-12-04T05:10:54;13.27;;;7.30;;
9138;SDS011;4604;48.616;9.548;2023-12-04T05:13:22;12.27;;;7.33;;
9138;SDS011;4604;48.616;9.548;2023-12-04T05:15:48;15.33;;;8.50;;
9138;SDS011;4604;48.616;9.548;2023-12-04T05:18:15;15.33;;;8.60;;
9138;SDS011;4604;48.616;9.548;2023-12-04T05:20:41;14.13;;;7.37;;
9138;SDS011;4604;48.616;9.548;2023-12-04T05:23:08;13.93;;;7.47;;
9138;SDS011;4604;48.616;9.548;2023-12-04T05:25:35;14.17;;;7.53;;
9138;SDS011;4604;48.616;9.548;2023-12-04T05:28:01;15.57;;;8.83;;
9138;SDS011;4604;48.616;9.548;2023-12-04T05:30:29;20.03;;;8.30;;
9138;SDS011;4604;48.616;9.548;2023-12-04T05:32:56;18.60;;;7.87;;
9138;SDS011;4604;48.616;9.548;2023-12-04T05:35:22;13.17;;;7.63;;
9138;SDS011;4604;48.616;9.548;2023-12-04T05:37:49;16.83;;;8.60;;
9138;SDS011;4604;48.616;9.548;2023-12-04T05:40:16;18.10;;;8.83;;
9138;SDS011;4604;48.616;9.548;2023-12-04T05:42:43;15.70;;;7.77;;
9138;SDS011;4604;48.616;9.548;2023-12-04T05:45:09;18.23;;;8.17;;
9138;SDS011;4604;48.616;9.548;2023-12-04T05:47:37;16.33;;;8.10;;
9138;SDS011;4604;48.616;9.548;2023-12-04T05:50:04;14.57;;;7.63;;
9138;SDS011;4604;48.616;9.548;2023-12-04T05:52:31;16.47;;;8.93;;
9138;SDS011;4604;48.616;9.548;2023-12-04T05:54:57;16.37;;;8.90;;
9138;SDS011;4604;48.616;9.548;2023-12-04T05:57:24;13.37;;;7.50;;
9138;SDS011;4604;48.616;9.548;2023-12-04T05:59:51;17.30;;;9.03;;
9138;SDS011;4604;48.616;9.548;2023-12-04T06:02:17;17.87;;;9.87;;
9138;SDS011;4604;48.616;9.548;2023-12-04T06:04:45;18.23;;;9.03;;
9138;SDS011;4604;48.616;9.548;2023-12-04T06:07:12;16.43;;;8.73;;
9138;SDS011;4604;48.616;9.548;2023-12-04T06:09:38;21.40;;;9.87;;
9138;SDS011;4604;48.616;9.548;2023-12-04T06:12:05;18.50;;;9.67;;
9138;SDS011;4604;48.616;9.548;2023-12-04T06:14:34;25.43;;;11.93;;
9138;SDS011;4604;48.616;9.548;2023-12-04T06:17:01;23.50;;;12.30;;
9138;SDS011;4604;48.616;9.548;2023-12-04T06:19:28;18.37;;;10.27;;
9138;SDS011;4604;48.616;9.548;2023-12-04T06:21:56;19.57;;;10.40;;
9138;SDS011;4604;48.616;9.548;2023-12-04T06:24:23;21.27;;;10.47;;
9138;SDS011;4604;48.616;9.548;2023-12-04T06:26:50;21.20;;;10.30;;
9138;SDS011;4604;48.616;9.548;2023-12-04T06:29:18;18.87;;;9.20;;
9138;SDS011;4604;48.616;9.548;2023-12-04T06:31:45;23.17;;;10.63;;
9138;SDS011;4604;48.616;9.548;2023-12-04T06:34:12;18.63;;;10.27;;
9138;SDS011;4604;48.616;9.548;2023-12-04T06:36:39;18.30;;;10.00;;
9138;SDS011;4604;48.616;9.548;2023-12-04T06:39:09;19.40;;;10.70;;
9138;SDS011;4604;48.616;9.548;2023-12-04T06:41:37;16.57;;;9.70;;
9138;SDS011;4604;48.616;9.548;2023-12-04T06:44:05;17.13;;;9.67;;
9138;SDS011;4604;48.616;9.548;2023-12-04T06:46:32;19.60;;;9.47;;
9138;SDS011;4604;48.616;9.548;2023-12-04T06:49:02;21.30;;;9.60;;
9138;SDS011;4604;48.616;9.548;2023-12-04T06:51:31;19.73;;;9.97;;
9138;SDS011;4604;48.616;9.548;2023-12-04T06:53:57;21.53;;;11.47;;
9138;SDS011;4604;48.616;9.548;2023-12-04T06:56:28;20.93;;;10.87;;
9138;SDS011;4604;48.616;9.548;2023-12-04T06:58:55;22.73;;;10.20;;
9138;SDS011;4604;48.616;9.548;2023-12-04T07:01:21;16.23;;;8.43;;
9138;SDS011;4604;48.616;9.548;2023-12-04T07:03:48;15.63;;;8.93;;
9138;SDS011;4604;48.616;9.548;2023-12-04T07:06:14;19.20;;;8.57;;
9138;SDS011;4604;48.616;9.548;2023-12-04T07:08:41;19.43;;;9.47;;
9138;SDS011;4604;48.616;9.548;2023-12-04T07:11:08;18.30;;;8.90;;
9138;SDS011;4604;48.616;9.548;2023-12-04T07:13:36;18.03;;;9.87;;
9138;SDS011;4604;48.616;9.548;2023-12-04T07:16:03;17.70;;;9.70;;
9138;SDS011;4604;48.616;9.548;2023-12-04T07:18:30;20.40;;;9.13;;
9138;SDS011;4604;48.616;9.548;2023-12-04T07:20:57;24.53;;;10.43;;
9138;SDS011;4604;48.616;9.548;2023-12-04T07:23:24;20.37;;;9.53;;
9138;SDS011;4604;48.616;9.548;2023-12-04T07:25:50;18.23;;;9.10;;
9138;SDS011;4604;48.616;9.548;2023-12-04T07:28:17;19.60;;;9.37;;
9138;SDS011;4604;48.616;9.548;2023-12-04T07:30:46;19.53;;;9.53;;
9138;SDS011;4604;48.616;9.548;2023-12-04T07:33:12;16.70;;;8.87;;
9138;SDS011;4604;48.616;9.548;2023-12-04T07:35:39;18.50;;;8.57;;
9138;SDS011;4604;48.616;9.548;2023-12-04T07:38:05;104.13;;;41.27;;
9138;SDS011;4604;48.616;9.548;2023-12-04T07:40:32;37.50;;;15.50;;
9138;SDS011;4604;48.616;9.548;2023-12-04T07:42:59;26.77;;;12.00;;
9138;SDS011;4604;48.616;9.548;2023-12-04T07:45:25;19.17;;;10.20;;
9138;SDS011;4604;48.616;9.548;2023-12-04T07:47:53;20.97;;;10.20;;
9138;SDS011;4604;48.616;9.548;2023-12-04T07:50:20;20.43;;;10.83;;
9138;SDS011;4604;48.616;9.548;2023-12-04T07:52:47;17.90;;;9.43;;
9138;SDS011;4604;48.616;9.548;2023-12-04T07:55:14;19.17;;;9.43;;
9138;SDS011;4604;48.616;9.548;2023-12-04T07:57:40;21.73;;;9.20;;
9138;SDS011;4604;48.616;9.548;2023-12-04T08:00:07;16.80;;;9.10;;
9138;SDS011;4604;48.616;9.548;2023-12-04T08:02:34;18.00;;;8.90;;
9138;SDS011;4604;48.616;9.548;2023-12-04T08:05:02;15.63;;;9.17;;
9138;SDS011;4604;48.616;9.548;2023-12-04T08:07:29;18.90;;;9.87;;
9138;SDS011;4604;48.616;9.548;2023-12-04T08:09:56;26.13;;;12.40;;
9138;SDS011;4604;48.616;9.548;2023-12-04T08:12:23;21.50;;;11.90;;
9138;SDS011;4604;48.616;9.548;2023-12-04T08:14:49;24.17;;;10.80;;
9138;SDS011;4604;48.616;9.548;2023-12-04T08:17:16;19.00;;;10.77;;
9138;SDS011;4604;48.616;9.548;2023-12-04T08:19:43;23.70;;;10.50;;
9138;SDS011;4604;48.616;9.548;2023-12-04T08:22:11;23.43;;;11.77;;
9138;SDS011;4604;48.616;9.548;2023-12-04T08:24:38;28.20;;;13.33;;
9138;SDS011;4604;48.616;9.548;2023-12-04T08:27:05;20.93;;;10.07;;
9138;SDS011;4604;48.616;9.548;2023-12-04T08:29:33;18.60;;;9.90;;
9138;SDS011;4604;48.616;9.548;2023-12-04T08:31:59;19.33;;;9.00;;
9138;SDS011;4604;48.616;9.548;2023-12-04T08:34:26;21.07;;;12.17;;
9138;SDS011;4604;48.616;9.548;2023-12-04T08:36:52;23.77;;;11.27;;
9138;SDS011;4604;48.616;9.548;2023-12-04T08:39:21;20.07;;;9.13;;
9138;SDS011;4604;48.616;9.548;2023-12-04T08:41:48;23.70;;;11.13;;
9138;SDS011;4604;48.616;9.548;2023-12-04T08:44:15;22.57;;;12.17;;
9138;SDS011;4604;48.616;9.548;2023-12-04T08:46:41;21.00;;;10.60;;
9138;SDS011;4604;48.616;9.548;2023-12-04T08:49:08;18.00;;;9.63;;
9138;SDS011;4604;48.616;9.548;2023-12-04T08:51:35;19.97;;;10.47;;
9138;SDS011;4604;48.616;9.548;2023-12-04T08:54:02;22.50;;;11.13;;
9138;SDS011;4604;48.616;9.548;2023-12-04T08:56:30;18.67;;;9.73;;
9138;SDS011;4604;48.616;9.548;2023-12-04T08:58:56;22.90;;;11.80;;
9138;SDS011;4604;48.616;9.548;2023-12-04T09:01:23;24.90;;;12.30;;
9138;SDS011;4604;48.616;9.548;2023-12-04T09:03:51;20.30;;;10.93;;
9138;SDS011;4604;48.616;9.548;2023-12-04T09:06:18;22.37;;;11.63;;
9138;SDS011;4604;48.616;9.548;2023-12-04T09:08:45;20.00;;;10.83;;
9138;SDS011;4604;48.616;9.548;2023-12-04T09:11:11;26.87;;;11.77;;
9138;SDS011;4604;48.616;9.548;2023-12-04T09:13:40;20.60;;;10.57;;
9138;SDS011;4604;48.616;9.548;2023-12-04T09:16:07;21.53;;;10.97;;
9138;SDS011;4604;48.616;9.548;2023-12-04T09:18:34;19.33;;;10.00;;
9138;SDS011;4604;48.616;9.548;2023-12-04T09:21:00;22.63;;;11.97;;
9138;SDS011;4604;48.616;9.548;2023-12-04T09:23:27;22.83;;;13.03;;
9138;SDS011;4604;48.616;9.548;2023-12-04T09:25:54;23.80;;;12.67;;
9138;SDS011;4604;48.616;9.548;2023-12-04T09:28:20;24.40;;;12.53;;
9138;SDS011;4604;48.616;9.548;2023-12-04T09:30:48;23.73;;;12.87;;
9138;SDS011;4604;48.616;9.548;2023-12-04T09:33:15;25.07;;;12.60;;
9138;SDS011;4604;48.616;9.548;2023-12-04T09:35:42;25.77;;;12.37;;
9138;SDS011;4604;48.616;9.548;2023-12-04T09:38:09;23.20;;;11.50;;
9138;SDS011;4604;48.616;9.548;2023-12-04T09:40:36;20.20;;;11.60;;
9138;SDS011;4604;48.616;9.548;2023-12-04T09:43:03;22.43;;;12.03;;
9138;SDS011;4604;48.616;9.548;2023-12-04T09:45:32;18.97;;;11.77;;
9138;SDS011;4604;48.616;9.548;2023-12-04T09:48:01;28.80;;;12.87;;
9138;SDS011;4604;48.616;9.548;2023-12-04T09:50:27;27.20;;;11.37;;
9138;SDS011;4604;48.616;9.548;2023-12-04T09:52:54;20.17;;;10.40;;
9138;SDS011;4604;48.616;9.548;2023-12-04T09:55:25;24.10;;;10.50;;
9138;SDS011;4604;48.616;9.548;2023-12-04T09:57:52;20.37;;;10.17;;
9138;SDS011;4604;48.616;9.548;2023-12-04T10:00:21;21.53;;;11.13;;
9138;SDS011;4604;48.616;9.548;2023-12-04T10:02:48;25.37;;;11.60;;
9138;SDS011;4604;48.616;9.548;2023-12-04T10:05:16;20.00;;;10.47;;
9138;SDS011;4604;48.616;9.548;2023-12-04T10:07:43;26.10;;;14.33;;
9138;SDS011;4604;48.616;9.548;2023-12-04T10:10:09;21.83;;;10.93;;
9138;SDS011;4604;48.616;9.548;2023-12-04T10:12:36;26.57;;;11.00;;
9138;SDS011;4604;48.616;9.548;2023-12-04T10:15:03;21.27;;;10.97;;
9138;SDS011;4604;48.616;9.548;2023-12-04T10:17:35;24.20;;;12.03;;
9138;SDS011;4604;48.616;9.548;2023-12-04T10:20:06;24.10;;;12.23;;
9138;SDS011;4604;48.616;9.548;2023-12-04T10:22:38;26.30;;;13.57;;
9138;SDS011;4604;48.616;9.548;2023-12-04T10:27:51;23.83;;;12.20;;
9138;SDS011;4604;48.616;9.548;2023-12-04T10:30:22;24.03;;;11.93;;
9138;SDS011;4604;48.616;9.548;2023-12-04T10:32:53;20.93;;;11.43;;
9138;SDS011;4604;48.616;9.548;2023-12-04T10:35:21;22.93;;;11.87;;
9138;SDS011;4604;48.616;9.548;2023-12-04T10:37:50;21.13;;;11.53;;
9138;SDS011;4604;48.616;9.548;2023-12-04T10:40:23;22.07;;;10.47;;
9138;SDS011;4604;48.616;9.548;2023-12-04T10:42:50;23.27;;;11.00;;
9138;SDS011;4604;48.616;9.548;2023-12-04T10:45:17;22.83;;;11.57;;
9138;SDS011;4604;48.616;9.548;2023-12-04T10:47:47;22.43;;;11.83;;
9138;SDS011;4604;48.616;9.548;2023-12-04T10:50:16;22.73;;;11.37;;
9138;SDS011;4604;48.616;9.548;2023-12-04T10:52:43;18.73;;;11.23;;
9138;SDS011;4604;48.616;9.548;2023-12-04T10:55:13;22.33;;;11.43;;
9138;SDS011;4604;48.616;9.548;2023-12-04T10:57:40;23.60;;;11.57;;
9138;SDS011;4604;48.616;9.548;2023-12-04T11:00:09;20.97;;;11.63;;
9138;SDS011;4604;48.616;9.548;2023-12-04T11:02:42;19.10;;;10.20;;
9138;SDS011;4604;48.616;9.548;2023-12-04T11:05:12;22.43;;;11.27;;
9138;SDS011;4604;48.616;9.548;2023-12-04T11:07:44;23.00;;;11.43;;
9138;SDS011;4604;48.616;9.548;2023-12-04T11:10:15;18.57;;;10.53;;
9138;SDS011;4604;48.616;9.548;2023-12-04T11:12:47;20.43;;;10.60;;
9138;SDS011;4604;48.616;9.548;2023-12-04T11:15:19;18.00;;;10.53;;
9138;SDS011;4604;48.616;9.548;2023-12-04T11:17:51;20.70;;;10.83;;
9138;SDS011;4604;48.616;9.548;2023-12-04T11:20:21;25.97;;;11.70;;
9138;SDS011;4604;48.616;9.548;2023-12-04T11:22:50;21.70;;;10.40;;
9138;SDS011;4604;48.616;9.548;2023-12-04T11:25:20;21.47;;;10.57;;
9138;SDS011;4604;48.616;9.548;2023-12-04T11:27:49;21.53;;;11.73;;
9138;SDS011;4604;48.616;9.548;2023-12-04T11:30:17;22.87;;;12.07;;
9138;SDS011;4604;48.616;9.548;2023-12-04T11:32:44;22.13;;;12.37;;
9138;SDS011;4604;48.616;9.548;2023-12-04T11:35:15;24.13;;;11.83;;
9138;SDS011;4604;48.616;9.548;2023-12-04T11:37:43;22.00;;;11.33;;
9138;SDS011;4604;48.616;9.548;2023-12-04T11:40:11;19.33;;;10.90;;
9138;SDS011;4604;48.616;9.548;2023-12-04T11:42:40;20.10;;;11.37;;
9138;SDS011;4604;48.616;9.548;2023-12-04T11:45:07;19.87;;;10.27;;
9138;SDS011;4604;48.616;9.548;2023-12-04T11:47:48;19.90;;;10.03;;
9138;SDS011;4604;48.616;9.548;2023-12-04T11:50:16;20.10;;;11.00;;
9138;SDS011;4604;48.616;9.548;2023-12-04T11:52:43;22.50;;;11.53;;
9138;SDS011;4604;48.616;9.548;2023-12-04T11:55:10;27.07;;;12.13;;
9138;SDS011;4604;48.616;9.548;2023-12-04T11:57:37;21.60;;;12.23;;
9138;SDS011;4604;48.616;9.548;2023-12-04T12:00:11;23.40;;;12.77;;
9138;SDS011;4604;48.616;9.548;2023-12-04T12:02:39;22.07;;;11.57;;
9138;SDS011;4604;48.616;9.548;2023-12-04T12:05:07;23.87;;;12.30;;
9138;SDS011;4604;48.616;9.548;2023-12-04T12:07:34;26.03;;;13.03;;
9138;SDS011;4604;48.616;9.548;2023-12-04T12:10:01;24.33;;;12.43;;
9138;SDS011;4604;48.616;9.548;2023-12-04T12:12:28;24.47;;;11.50;;
9138;SDS011;4604;48.616;9.548;2023-12-04T12:14:58;23.27;;;11.47;;
9138;SDS011;4604;48.616;9.548;2023-12-04T12:17:25;21.30;;;10.90;;
9138;SDS011;4604;48.616;9.548;2023-12-04T12:19:52;20.70;;;11.63;;
9138;SDS011;4604;48.616;9.548;2023-12-04T12:22:21;20.87;;;11.80;;
9138;SDS011;4604;48.616;9.548;2023-12-04T12:24:48;23.87;;;11.87;;
9138;SDS011;4604;48.616;9.548;2023-12-04T12:27:16;22.03;;;11.93;;
9138;SDS011;4604;48.616;9.548;2023-12-04T12:29:43;19.17;;;10.73;;
9138;SDS011;4604;48.616;9.548;2023-12-04T12:32:11;24.97;;;12.57;;
9138;SDS011;4604;48.616;9.548;2023-12-04T12:34:37;19.47;;;11.03;;
9138;SDS011;4604;48.616;9.548;2023-12-04T12:37:04;25.50;;;13.37;;
9138;SDS011;4604;48.616;9.548;2023-12-04T12:39:31;26.33;;;13.53;;
9138;SDS011;4604;48.616;9.548;2023-12-04T12:41:58;28.37;;;13.00;;
9138;SDS011;4604;48.616;9.548;2023-12-04T12:44:24;25.73;;;12.33;;
9138;SDS011;4604;48.616;9.548;2023-12-04T12:46:52;23.63;;;12.27;;
9138;SDS011;4604;48.616;9.548;2023-12-04T12:49:20;26.63;;;13.57;;
9138;SDS011;4604;48.616;9.548;2023-12-04T12:51:47;22.50;;;12.60;;
9138;SDS011;4604;48.616;9.548;2023-12-04T12:54:13;25.23;;;12.90;;
9138;SDS011;4604;48.616;9.548;2023-12-04T12:56:40;28.50;;;13.47;;
9138;SDS011;4604;48.616;9.548;2023-12-04T12:59:07;27.60;;;12.37;;
9138;SDS011;4604;48.616;9.548;2023-12-04T13:01:33;29.73;;;15.13;;
9138;SDS011;4604;48.616;9.548;2023-12-04T13:04:03;26.33;;;13.33;;
9138;SDS011;4604;48.616;9.548;2023-12-04T13:06:31;26.87;;;13.43;;
9138;SDS011;4604;48.616;9.548;2023-12-04T13:08:59;26.87;;;14.47;;
9138;SDS011;4604;48.616;9.548;2023-12-04T13:11:25;21.67;;;12.63;;
9138;SDS011;4604;48.616;9.548;2023-12-04T13:13:52;26.60;;;14.53;;
9138;SDS011;4604;48.616;9.548;2023-12-04T13:16:19;25.30;;;13.13;;
9138;SDS011;4604;48.616;9.548;2023-12-04T13:18:45;27.87;;;15.13;;
9138;SDS011;4604;48.616;9.548;2023-12-04T13:21:12;23.97;;;13.90;;
9138;SDS011;4604;48.616;9.548;2023-12-04T13:23:40;24.93;;;14.57;;
9138;SDS011;4604;48.616;9.548;2023-12-04T13:26:07;23.90;;;14.80;;
9138;SDS011;4604;48.616;9.548;2023-12-04T13:28:35;31.70;;;16.20;;
9138;SDS011;4604;48.616;9.548;2023-12-04T13:31:03;27.03;;;15.37;;
9138;SDS011;4604;48.616;9.548;2023-12-04T13:33:30;25.13;;;13.43;;
9138;SDS011;4604;48.616;9.548;2023-12-04T13:35:56;23.40;;;13.30;;
9138;SDS011;4604;48.616;9.548;2023-12-04T13:38:23;25.30;;;13.60;;
9138;SDS011;4604;48.616;9.548;2023-12-04T13:40:51;35.33;;;18.03;;
9138;SDS011;4604;48.616;9.548;2023-12-04T13:43:33;29.20;;;16.13;;
9138;SDS011;4604;48.616;9.548;2023-12-04T13:46:17;29.73;;;15.60;;
9138;SDS011;4604;48.616;9.548;2023-12-04T13:48:43;29.20;;;15.80;;
9138;SDS011;4604;48.616;9.548;2023-12-04T13:51:10;29.87;;;15.30;;
9138;SDS011;4604;48.616;9.548;2023-12-04T13:53:38;37.67;;;20.27;;
9138;SDS011;4604;48.616;9.548;2023-12-04T13:56:11;37.13;;;19.43;;
9138;SDS011;4604;48.616;9.548;2023-12-04T13:58:50;41.37;;;22.90;;
9138;SDS011;4604;48.616;9.548;2023-12-04T14:01:22;44.87;;;22.80;;
9138;SDS011;4604;48.616;9.548;2023-12-04T14:03:50;39.13;;;19.30;;
9138;SDS011;4604;48.616;9.548;2023-12-04T14:06:17;30.53;;;16.97;;
9138;SDS011;4604;48.616;9.548;2023-12-04T14:08:44;28.80;;;16.03;;
9138;SDS011;4604;48.616;9.548;2023-12-04T14:11:13;29.73;;;16.80;;
9138;SDS011;4604;48.616;9.548;2023-12-04T14:13:40;30.40;;;16.37;;
9138;SDS011;4604;48.616;9.548;2023-12-04T14:16:07;30.07;;;15.17;;
9138;SDS011;4604;48.616;9.548;2023-12-04T14:18:35;30.10;;;16.13;;
9138;SDS011;4604;48.616;9.548;2023-12-04T14:21:01;27.17;;;15.53;;
9138;SDS011;4604;48.616;9.548;2023-12-04T14:23:28;30.60;;;15.63;;
9138;SDS011;4604;48.616;9.548;2023-12-04T14:25:55;26.00;;;13.90;;
9138;SDS011;4604;48.616;9.548;2023-12-04T14:28:23;25.33;;;12.73;;
9138;SDS011;4604;48.616;9.548;2023-12-04T14:30:49;27.97;;;15.20;;
9138;SDS011;4604;48.616;9.548;2023-12-04T14:33:17;35.13;;;15.20;;
9138;SDS011;4604;48.616;9.548;2023-12-04T14:35:43;30.47;;;16.13;;
9138;SDS011;4604;48.616;9.548;2023-12-04T14:38:10;30.73;;;15.67;;
9138;SDS011;4604;48.616;9.548;2023-12-04T14:40:37;29.03;;;14.90;;
9138;SDS011;4604;48.616;9.548;2023-12-04T14:43:04;28.97;;;15.40;;
9138;SDS011;4604;48.616;9.548;2023-12-04T14:45:35;28.70;;;15.30;;
9138;SDS011;4604;48.616;9.548;2023-12-04T14:48:02;29.57;;;14.90;;
9138;SDS011;4604;48.616;9.548;2023-12-04T14:50:32;30.00;;;14.87;;
9138;SDS011;4604;48.616;9.548;2023-12-04T14:52:58;29.90;;;16.13;;
9138;SDS011;4604;48.616;9.548;2023-12-04T14:55:40;33.17;;;15.97;;
9138;SDS011;4604;48.616;9.548;2023-12-04T14:58:24;30.10;;;15.87;;
9138;SDS011;4604;48.616;9.548;2023-12-04T15:01:09;29.70;;;15.40;;